Time;durP1;ratioP1;P1;durP2;ratioP2;P2;SDS_P1;SDS_P2;PMS_P1;PMS_P2;Temp;Humidity;BMP_temperature;BMP_pressure;BME280_temperature;BME280_humidity;BME280_pressure;Samples;Min_cycle;Max_cycle;Signal;HPM_P1;HPM_P2
2023/06/16 00:01:39;;;;;;;1999.90;999.90;;;15.10;98.00;;;;;;5035178;28;20468;-72
2023/06/16 00:04:05;;;;;;;1999.90;999.90;;;15.10;97.60;;;;;;5035510;28;20392;-73
2023/06/16 00:06:31;;;;;;;1999.90;999.90;;;15.20;97.60;;;;;;5035129;28;20046;-73
2023/06/16 00:08:58;;;;;;;1999.90;999.90;;;15.20;97.60;;;;;;5034088;28;20041;-74
2023/06/16 00:11:27;;;;;;;1999.90;999.90;;;15.10;97.30;;;;;;5034783;28;20119;-72
2023/06/16 00:13:53;;;;;;;1999.90;999.90;;;15.20;97.40;;;;;;5034752;28;20040;-75
2023/06/16 00:16:19;;;;;;;1999.90;999.90;;;15.20;97.60;;;;;;5033494;28;20038;-75
2023/06/16 00:18:57;;;;;;;1999.90;999.90;;;15.20;97.40;;;;;;5035307;28;20034;-72
2023/06/16 00:21:27;;;;;;;1999.90;999.90;;;15.20;97.50;;;;;;5035169;28;20049;-72
2023/06/16 00:23:54;;;;;;;1999.90;999.90;;;15.30;97.90;;;;;;5035293;28;20026;-72
2023/06/16 00:26:20;;;;;;;1999.90;999.90;;;15.20;97.80;;;;;;5034834;28;20508;-73
2023/06/16 00:28:45;;;;;;;1999.90;999.90;;;15.20;98.00;;;;;;5034897;28;20038;-72
2023/06/16 00:31:11;;;;;;;1999.90;999.90;;;15.20;98.30;;;;;;5033269;28;20042;-73
2023/06/16 00:33:36;;;;;;;1999.90;999.90;;;15.10;98.30;;;;;;5034795;28;20034;-72
2023/06/16 00:36:02;;;;;;;1999.90;999.90;;;15.00;98.20;;;;;;5034949;28;20488;-72
2023/06/16 00:38:29;;;;;;;1999.90;999.90;;;14.90;98.60;;;;;;5035168;28;20026;-72
2023/06/16 00:40:54;;;;;;;1999.90;999.90;;;14.90;98.90;;;;;;5034799;28;20034;-74
2023/06/16 00:43:20;;;;;;;1999.90;999.90;;;14.80;99.20;;;;;;5033201;28;20038;-72
2023/06/16 00:45:48;;;;;;;1999.90;999.90;;;14.70;99.40;;;;;;5035100;28;20117;-72
2023/06/16 00:48:14;;;;;;;1999.90;999.90;;;14.70;99.60;;;;;;5034904;28;20037;-72
2023/06/16 00:50:40;;;;;;;1999.90;999.90;;;14.70;99.20;;;;;;5034953;28;20388;-72
2023/06/16 00:53:06;;;;;;;1999.90;999.90;;;14.70;99.20;;;;;;5034303;28;20072;-73
2023/06/16 00:55:31;;;;;;;1999.90;999.90;;;14.60;99.40;;;;;;5034295;28;20088;-72
2023/06/16 00:57:58;;;;;;;1999.90;999.90;;;14.50;99.10;;;;;;5034966;28;20026;-72
2023/06/16 01:00:23;;;;;;;1999.90;999.90;;;14.40;99.30;;;;;;5033225;28;20510;-72
2023/06/16 01:02:50;;;;;;;1999.90;999.90;;;14.40;99.70;;;;;;5032681;28;20113;-72
2023/06/16 01:05:19;;;;;;;1999.90;999.90;;;14.40;99.80;;;;;;5034190;28;20459;-72
2023/06/16 01:08:01;;;;;;;1999.90;999.90;;;14.40;99.90;;;;;;5032931;28;20037;-72
2023/06/16 01:10:59;;;;;;;1999.90;999.90;;;14.20;99.90;;;;;;5034887;28;20443;-72
2023/06/16 01:13:33;;;;;;;1999.90;999.90;;;14.20;99.90;;;;;;5034719;28;20478;-72
2023/06/16 01:16:02;;;;;;;1999.90;999.90;;;14.20;99.90;;;;;;5033915;28;20041;-73
2023/06/16 01:18:29;;;;;;;1999.90;999.90;;;14.20;99.90;;;;;;5034379;28;20125;-72
2023/06/16 01:21:12;;;;;;;1999.90;999.90;;;14.10;99.90;;;;;;5033854;28;20113;-72
2023/06/16 01:24:04;;;;;;;1999.90;999.90;;;14.10;99.90;;;;;;5034744;28;20105;-73
2023/06/16 01:26:35;;;;;;;1999.90;999.90;;;14.10;99.90;;;;;;5014561;28;20047;-72
2023/06/16 01:29:10;;;;;;;1999.90;999.90;;;14.10;99.90;;;;;;5014322;28;20038;-72
2023/06/16 01:31:37;;;;;;;1999.90;999.90;;;14.20;99.90;;;;;;5014279;28;20508;-72
2023/06/16 01:34:06;;;;;;;1999.90;999.90;;;14.20;99.90;;;;;;5027109;28;20069;-72
2023/06/16 01:36:34;;;;;;;1999.90;999.90;;;14.20;99.90;;;;;;5033936;28;20046;-72
2023/06/16 01:39:01;;;;;;;1999.90;999.90;;;14.20;99.90;;;;;;5034012;28;20036;-72
2023/06/16 01:41:27;;;;;;;1999.90;999.90;;;14.20;99.90;;;;;;5036158;28;20428;-72
2023/06/16 01:43:54;;;;;;;1999.90;999.90;;;14.20;99.90;;;;;;5037629;28;20030;-72
2023/06/16 01:46:20;;;;;;;1999.90;999.90;;;14.30;99.90;;;;;;5036947;28;20045;-73
2023/06/16 01:48:46;;;;;;;1999.90;999.90;;;14.30;99.90;;;;;;5037658;28;20486;-72
2023/06/16 01:51:13;;;;;;;1999.90;999.90;;;14.30;99.90;;;;;;5037433;28;20089;-72
2023/06/16 01:53:38;;;;;;;1999.90;999.90;;;14.30;99.90;;;;;;5037703;28;20096;-72
2023/06/16 01:56:04;;;;;;;1999.90;999.90;;;14.30;99.90;;;;;;5036558;28;20574;-73
2023/06/16 01:58:30;;;;;;;1999.90;999.90;;;14.30;99.90;;;;;;5037625;28;20108;-72
2023/06/16 02:01:10;;;;;;;1999.90;999.90;;;14.40;99.90;;;;;;5037026;28;20045;-72
2023/06/16 02:03:40;;;;;;;1999.90;999.90;;;14.30;99.90;;;;;;5037465;28;20029;-72
2023/06/16 02:06:12;;;;;;;1999.90;999.90;;;14.20;99.90;;;;;;5036855;28;20622;-72
2023/06/16 02:08:41;;;;;;;1999.90;999.90;;;14.20;99.90;;;;;;5037369;28;20034;-72
2023/06/16 02:11:06;;;;;;;1999.90;999.90;;;14.10;99.90;;;;;;5037454;28;20038;-72
2023/06/16 02:13:32;;;;;;;1999.90;999.90;;;14.10;99.90;;;;;;5037219;28;20037;-72
2023/06/16 02:15:58;;;;;;;1999.90;999.90;;;14.00;99.90;;;;;;5036353;28;20052;-72
2023/06/16 02:18:27;;;;;;;1999.90;999.90;;;13.90;99.90;;;;;;5036843;28;20030;-72
2023/06/16 02:20:53;;;;;;;1999.90;999.90;;;13.80;99.90;;;;;;5036862;28;20029;-72
2023/06/16 02:23:20;;;;;;;1999.90;999.90;;;13.80;99.90;;;;;;5037094;28;20057;-72
2023/06/16 02:25:46;;;;;;;1999.90;999.90;;;13.70;99.90;;;;;;5034826;28;20042;-72
2023/06/16 02:28:11;;;;;;;1999.90;999.90;;;13.60;99.90;;;;;;5035469;28;20560;-72
2023/06/16 02:30:37;;;;;;;1999.90;999.90;;;13.60;99.90;;;;;;5036805;28;20048;-72
2023/06/16 02:33:02;;;;;;;1999.90;999.90;;;13.60;99.90;;;;;;5036949;28;20066;-72
2023/06/16 02:35:28;;;;;;;1999.90;999.90;;;13.50;99.90;;;;;;5036412;28;20080;-72
2023/06/16 02:37:53;;;;;;;1999.90;999.90;;;13.50;99.90;;;;;;5036847;28;20034;-72
2023/06/16 02:40:20;;;;;;;1999.90;999.90;;;13.40;99.90;;;;;;5035297;28;20034;-72
2023/06/16 02:42:46;;;;;;;1999.90;999.90;;;13.30;99.90;;;;;;5036662;28;20030;-72
2023/06/16 02:45:12;;;;;;;1999.90;999.90;;;13.30;99.90;;;;;;5036136;28;20080;-72
2023/06/16 02:47:38;;;;;;;1999.90;999.90;;;13.30;99.90;;;;;;5037032;28;20062;-72
2023/06/16 02:50:04;;;;;;;1999.90;999.90;;;13.30;99.90;;;;;;5035305;28;20041;-74
2023/06/16 02:52:29;;;;;;;1999.90;999.90;;;13.20;99.90;;;;;;5036465;28;20030;-72
2023/06/16 02:54:55;;;;;;;1999.90;999.90;;;13.20;99.90;;;;;;5036524;28;20042;-72
2023/06/16 02:57:21;;;;;;;1999.90;999.90;;;13.10;99.90;;;;;;5036411;28;20038;-72
2023/06/16 02:59:47;;;;;;;1999.90;999.90;;;13.20;99.90;;;;;;5036793;28;20060;-72
2023/06/16 03:02:13;;;;;;;1999.90;999.90;;;13.20;99.90;;;;;;5034972;28;20480;-72
2023/06/16 03:04:40;;;;;;;1999.90;999.90;;;13.10;99.90;;;;;;5036261;28;20042;-74
2023/06/16 03:07:06;;;;;;;1999.90;999.90;;;13.10;99.90;;;;;;5036140;28;20034;-72
2023/06/16 03:09:32;;;;;;;1999.90;999.90;;;13.00;99.90;;;;;;5035639;28;20045;-72
2023/06/16 03:11:58;;;;;;;1999.90;999.90;;;13.00;99.90;;;;;;5036142;28;20030;-72
2023/06/16 03:14:23;;;;;;;1999.90;999.90;;;13.00;99.90;;;;;;5036078;28;20068;-72
2023/06/16 03:16:50;;;;;;;1999.90;999.90;;;12.90;99.90;;;;;;5036234;28;20530;-75
2023/06/16 03:19:16;;;;;;;1999.90;999.90;;;12.90;99.90;;;;;;5035625;28;20115;-73
2023/06/16 03:21:42;;;;;;;1999.90;999.90;;;12.80;99.90;;;;;;5036013;28;20030;-73
2023/06/16 03:24:08;;;;;;;1999.90;999.90;;;12.90;99.90;;;;;;5036082;28;20037;-72
2023/06/16 03:26:35;;;;;;;1999.90;999.90;;;12.80;99.90;;;;;;5035590;28;20112;-73
2023/06/16 03:29:01;;;;;;;1999.90;999.90;;;12.80;99.90;;;;;;5036025;28;20038;-72
2023/06/16 03:31:27;;;;;;;1999.90;999.90;;;12.90;99.90;;;;;;5034328;28;20030;-72
2023/06/16 03:33:52;;;;;;;1999.90;999.90;;;12.80;99.90;;;;;;5035777;28;20038;-75
2023/06/16 03:36:18;;;;;;;1999.90;999.90;;;12.80;99.90;;;;;;5036035;28;20439;-72
2023/06/16 03:38:44;;;;;;;1999.90;999.90;;;12.70;99.90;;;;;;5035821;28;20036;-72
2023/06/16 03:41:09;;;;;;;1999.90;999.90;;;12.70;99.90;;;;;;5035465;28;20092;-72
2023/06/16 03:43:35;;;;;;;1999.90;999.90;;;12.70;99.90;;;;;;5035800;28;20037;-72
2023/06/16 03:46:00;;;;;;;1999.90;999.90;;;12.60;99.90;;;;;;5035503;28;20469;-72
2023/06/16 03:48:26;;;;;;;1999.90;999.90;;;12.60;99.90;;;;;;5036107;28;20034;-72
2023/06/16 03:50:52;;;;;;;1999.90;999.90;;;12.60;99.90;;;;;;5035465;28;20153;-73
2023/06/16 03:53:19;;;;;;;1999.90;999.90;;;12.60;99.90;;;;;;5035514;28;20068;-73
2023/06/16 03:55:44;;;;;;;1999.90;999.90;;;12.70;99.90;;;;;;5035101;28;20061;-72
2023/06/16 03:58:10;;;;;;;1999.90;999.90;;;12.70;99.90;;;;;;5035673;28;20038;-74
2023/06/16 04:00:36;;;;;;;1999.90;999.90;;;12.80;99.90;;;;;;5035714;28;20044;-74
2023/06/16 04:03:02;;;;;;;1999.90;999.90;;;12.80;99.90;;;;;;5033208;28;20071;-72
2023/06/16 04:05:27;;;;;;;1999.90;999.90;;;12.80;99.90;;;;;;5035004;28;20042;-72
2023/06/16 04:07:54;;;;;;;1999.90;999.90;;;12.90;99.90;;;;;;5034122;28;20026;-72
2023/06/16 04:10:19;;;;;;;1999.90;999.90;;;12.80;99.90;;;;;;5035516;28;20045;-72
2023/06/16 04:12:54;;;;;;;1999.90;999.90;;;12.80;99.90;;;;;;5035326;28;20511;-73
2023/06/16 04:15:20;;;;;;;1999.90;999.90;;;12.80;99.90;;;;;;5015311;28;20030;-72
2023/06/16 04:17:45;;;;;;;1999.90;999.90;;;12.90;99.90;;;;;;5015720;28;20366;-73
2023/06/16 04:20:12;;;;;;;1999.90;999.90;;;12.90;99.90;;;;;;5015467;28;20041;-72
2023/06/16 04:22:38;;;;;;;1999.90;999.90;;;12.90;99.90;;;;;;5027607;28;20042;-72
2023/06/16 04:25:05;;;;;;;1999.90;999.90;;;12.90;99.90;;;;;;5035187;28;20037;-72
2023/06/16 04:27:32;;;;;;;1999.90;999.90;;;13.00;99.90;;;;;;5035104;28;20463;-73
2023/06/16 04:29:58;;;;;;;1999.90;999.90;;;13.00;99.90;;;;;;5028188;28;20046;-77
2023/06/16 04:32:23;;;;;;;1999.90;999.90;;;13.00;99.90;;;;;;5038109;28;20384;-77
2023/06/16 04:34:49;;;;;;;1999.90;999.90;;;13.10;99.90;;;;;;5029708;28;20487;-77
2023/06/16 04:37:16;;;;;;;1999.90;999.90;;;13.20;99.90;;;;;;5037526;28;20030;-77
2023/06/16 04:39:42;;;;;;;1999.90;999.90;;;13.20;99.90;;;;;;5037005;28;20034;-77
2023/06/16 04:42:09;;;;;;;1999.90;999.90;;;13.30;99.90;;;;;;5038405;28;20034;-77
2023/06/16 04:44:35;;;;;;;1999.90;999.90;;;13.40;99.90;;;;;;5036105;28;20129;-77
2023/06/16 04:47:01;;;;;;;1999.90;999.90;;;13.40;99.90;;;;;;5037578;28;20472;-77
2023/06/16 04:49:27;;;;;;;1999.90;999.90;;;13.40;99.90;;;;;;5037450;28;20475;-77
2023/06/16 04:51:52;;;;;;;1999.90;999.90;;;13.50;99.90;;;;;;5036198;28;20034;-77
2023/06/16 04:54:19;;;;;;;1999.90;999.90;;;13.50;99.90;;;;;;5036406;28;20113;-77
2023/06/16 04:56:45;;;;;;;1999.90;999.90;;;13.50;99.90;;;;;;5038119;28;20034;-77
2023/06/16 04:59:11;;;;;;;1999.90;999.90;;;13.60;99.90;;;;;;5037680;28;20025;-77
2023/06/16 05:01:37;;;;;;;1999.90;999.90;;;13.60;99.90;;;;;;5037874;28;20038;-77
2023/06/16 05:04:02;;;;;;;1999.90;999.90;;;13.60;99.90;;;;;;5038178;28;20400;-77
2023/06/16 05:06:28;;;;;;;1999.90;999.90;;;13.70;99.90;;;;;;5036288;28;20053;-77
2023/06/16 05:08:54;;;;;;;1999.90;999.90;;;13.80;99.90;;;;;;5037412;28;20026;-76
2023/06/16 05:11:20;;;;;;;1999.90;999.90;;;13.80;99.90;;;;;;5037635;28;20037;-77
2023/06/16 05:13:46;;;;;;;1999.90;999.90;;;13.90;99.90;;;;;;5036727;28;20034;-74
2023/06/16 05:16:11;;;;;;;1999.90;999.90;;;14.10;99.90;;;;;;5036282;28;20033;-77
2023/06/16 05:18:37;;;;;;;1999.90;999.90;;;14.10;99.90;;;;;;5038301;28;20041;-77
2023/06/16 05:21:02;;;;;;;1999.90;999.90;;;14.20;99.90;;;;;;5036573;28;20119;-77
2023/06/16 05:23:28;;;;;;;1999.90;999.90;;;14.30;99.90;;;;;;5035391;28;20030;-77
2023/06/16 05:25:53;;;;;;;1999.90;999.90;;;14.50;99.90;;;;;;5037380;28;20049;-77
2023/06/16 05:28:19;;;;;;;1999.90;999.90;;;14.60;99.90;;;;;;5037525;28;20069;-77
2023/06/16 05:30:45;;;;;;;1999.90;999.90;;;14.70;99.90;;;;;;5034063;28;20042;-77
2023/06/16 05:33:10;;;;;;;1999.90;999.90;;;14.80;99.90;;;;;;5035380;28;20026;-77
2023/06/16 05:35:36;;;;;;;1999.90;999.90;;;14.90;99.90;;;;;;5035832;28;20121;-77
2023/06/16 05:38:02;;;;;;;1999.90;999.90;;;15.00;99.90;;;;;;5034302;28;20033;-77
2023/06/16 05:40:27;;;;;;;1999.90;999.90;;;15.10;99.90;;;;;;5036041;28;20420;-76
2023/06/16 05:42:53;;;;;;;1999.90;999.90;;;15.10;99.90;;;;;;5036438;28;20117;-77
2023/06/16 05:45:19;;;;;;;1999.90;999.90;;;15.30;99.90;;;;;;5036421;28;20042;-77
2023/06/16 05:47:45;;;;;;;1999.90;999.90;;;15.30;99.90;;;;;;5036821;28;20034;-77
2023/06/16 05:50:11;;;;;;;1999.90;999.90;;;15.40;99.90;;;;;;5037266;28;20076;-77
2023/06/16 05:52:37;;;;;;;1999.90;999.90;;;15.50;99.90;;;;;;5036910;28;20049;-77
2023/06/16 05:55:03;;;;;;;1999.90;999.90;;;15.60;99.90;;;;;;5034983;28;20782;-77
2023/06/16 05:57:29;;;;;;;1999.90;999.90;;;15.70;99.90;;;;;;5035453;28;20034;-75
2023/06/16 05:59:55;;;;;;;1999.90;999.90;;;15.80;99.90;;;;;;5034267;28;20037;-77
2023/06/16 06:02:21;;;;;;;1999.90;999.90;;;15.90;99.90;;;;;;5032509;28;20030;-77
2023/06/16 06:04:47;;;;;;;1999.90;999.90;;;15.90;99.90;;;;;;5035339;28;20133;-78
2023/06/16 06:07:12;;;;;;;1999.90;999.90;;;16.10;99.90;;;;;;5033661;28;20466;-77
2023/06/16 06:09:38;;;;;;;1999.90;999.90;;;16.10;99.90;;;;;;5034247;28;20038;-77
2023/06/16 06:12:04;;;;;;;1999.90;999.90;;;16.30;99.90;;;;;;5033877;28;20030;-77
2023/06/16 06:14:29;;;;;;;1999.90;999.90;;;16.30;99.90;;;;;;5034550;28;20037;-77
2023/06/16 06:16:55;;;;;;;1999.90;999.90;;;16.50;99.90;;;;;;5034373;28;20038;-77
2023/06/16 06:19:23;;;;;;;1999.90;999.90;;;16.50;99.90;;;;;;5034333;28;20038;-77
2023/06/16 06:21:48;;;;;;;1999.90;999.90;;;16.60;99.90;;;;;;5034007;28;20084;-77
2023/06/16 06:24:14;;;;;;;1999.90;999.90;;;16.70;99.90;;;;;;5034230;28;20435;-77
2023/06/16 06:26:40;;;;;;;1999.90;999.90;;;16.80;99.90;;;;;;5035049;28;20072;-78
2023/06/16 06:29:05;;;;;;;1999.90;999.90;;;16.90;99.90;;;;;;5037606;28;20033;-77
2023/06/16 06:31:31;;;;;;;1999.90;999.90;;;16.90;99.90;;;;;;5037515;28;20033;-77
2023/06/16 06:33:57;;;;;;;1999.90;999.90;;;17.00;99.80;;;;;;5037630;28;20058;-77
2023/06/16 06:36:27;;;;;;;1999.90;999.90;;;17.20;99.30;;;;;;5036056;28;20483;-77
2023/06/16 06:38:56;;;;;;;1999.90;999.90;;;17.30;99.70;;;;;;5036984;28;20050;-77
2023/06/16 06:41:23;;;;;;;1999.90;999.90;;;17.40;99.90;;;;;;5036746;28;20045;-77
2023/06/16 06:43:49;;;;;;;1999.90;999.90;;;17.40;99.40;;;;;;5037400;28;20030;-78
2023/06/16 06:46:17;;;;;;;1999.90;999.90;;;17.50;99.30;;;;;;5036573;28;20496;-77
2023/06/16 06:48:43;;;;;;;1999.90;999.90;;;17.70;99.70;;;;;;5035294;28;20037;-77
2023/06/16 06:51:09;;;;;;;1999.90;999.90;;;17.70;99.40;;;;;;5036642;28;20042;-77
2023/06/16 06:53:35;;;;;;;1999.90;999.90;;;17.90;99.30;;;;;;5036907;28;20380;-78
2023/06/16 06:56:00;;;;;;;1999.90;999.90;;;18.00;98.60;;;;;;5036482;28;20041;-78
2023/06/16 06:58:26;;;;;;;1999.90;999.90;;;18.20;98.20;;;;;;5034801;28;20589;-77
2023/06/16 07:00:51;;;;;;;1999.90;999.90;;;18.20;97.90;;;;;;5035461;28;20033;-75
2023/06/16 07:03:20;;;;;;;1999.90;999.90;;;18.30;97.60;;;;;;5036173;28;20030;-75
2023/06/16 07:05:52;;;;;;;1999.90;999.90;;;18.50;97.10;;;;;;5035758;28;20097;-75
2023/06/16 07:08:17;;;;;;;1999.90;999.90;;;18.60;96.90;;;;;;5036088;28;20042;-75
2023/06/16 07:10:43;;;;;;;1999.90;999.90;;;18.80;97.30;;;;;;5036002;28;20044;-75
2023/06/16 07:13:08;;;;;;;1999.90;999.90;;;18.90;95.70;;;;;;5035449;28;20361;-76
2023/06/16 07:15:34;;;;;;;1999.90;999.90;;;18.90;96.50;;;;;;5035965;28;20034;-75
2023/06/16 07:18:00;;;;;;;1999.90;999.90;;;19.10;95.50;;;;;;5024810;28;20070;-74
2023/06/16 07:20:25;;;;;;;1999.90;999.90;;;19.30;94.50;;;;;;5031065;28;20096;-75
2023/06/16 07:22:51;;;;;;;1999.90;999.90;;;19.50;93.80;;;;;;5032450;28;20481;-75
2023/06/16 07:25:16;;;;;;;1999.90;999.90;;;19.70;93.30;;;;;;5031995;28;20042;-75
2023/06/16 07:27:43;;;;;;;1999.90;999.90;;;19.90;93.10;;;;;;5026507;28;20066;-74
2023/06/16 07:30:09;;;;;;;1999.90;999.90;;;20.10;93.00;;;;;;5032096;28;20092;-74
2023/06/16 07:32:36;;;;;;;1999.90;999.90;;;20.20;92.80;;;;;;5033032;28;20040;-78
2023/06/16 07:35:02;;;;;;;1999.90;999.90;;;20.40;92.80;;;;;;5035639;28;20057;-75
2023/06/16 07:37:27;;;;;;;1999.90;999.90;;;20.60;92.50;;;;;;5034248;28;20044;-76
2023/06/16 07:39:53;;;;;;;1999.90;999.90;;;20.70;91.80;;;;;;5011311;28;20396;-78
2023/06/16 07:42:18;;;;;;;1999.90;999.90;;;21.00;91.00;;;;;;5026040;28;20045;-77
2023/06/16 07:44:44;;;;;;;1999.90;999.90;;;21.00;90.70;;;;;;5035101;28;20451;-74
2023/06/16 07:47:10;;;;;;;1999.90;999.90;;;21.20;90.90;;;;;;5035240;28;20539;-76
2023/06/16 07:49:35;;;;;;;1999.90;999.90;;;21.30;90.10;;;;;;5035994;28;20033;-75
2023/06/16 07:52:01;;;;;;;1999.90;999.90;;;21.40;87.70;;;;;;5035247;28;20105;-75
2023/06/16 07:54:26;;;;;;;1999.90;999.90;;;21.60;87.20;;;;;;5035773;28;20038;-74
2023/06/16 07:56:52;;;;;;;1999.90;999.90;;;21.80;87.90;;;;;;5034869;28;20053;-75
2023/06/16 07:59:18;;;;;;;1999.90;999.90;;;21.90;85.80;;;;;;5034042;28;20045;-79
2023/06/16 08:01:44;;;;;;;1999.90;999.90;;;22.10;86.20;;;;;;5035905;28;20045;-77
2023/06/16 08:04:11;;;;;;;1999.90;999.90;;;22.20;85.00;;;;;;5034955;28;20061;-77
2023/06/16 08:06:36;;;;;;;1999.90;999.90;;;22.50;80.30;;;;;;5033175;28;20476;-76
2023/06/16 08:09:03;;;;;;;1999.90;999.90;;;22.80;79.20;;;;;;5032078;28;20029;-77
2023/06/16 08:11:29;;;;;;;1999.90;999.90;;;22.90;76.60;;;;;;5032155;28;20030;-77
2023/06/16 08:13:54;;;;;;;1999.90;999.90;;;22.90;73.80;;;;;;5034496;28;20026;-78
2023/06/16 08:16:20;;;;;;;1999.90;999.90;;;23.10;76.20;;;;;;5034312;28;20488;-78
2023/06/16 08:18:45;;;;;;;1999.90;999.90;;;23.30;75.50;;;;;;5034276;28;20399;-78
2023/06/16 08:21:11;;;;;;;1999.90;999.90;;;23.30;73.90;;;;;;5034835;28;20878;-77
2023/06/16 08:23:37;;;;;;;1999.90;999.90;;;23.40;68.90;;;;;;5035504;28;20046;-78
2023/06/16 08:26:04;;;;;;;1999.90;999.90;;;23.50;73.00;;;;;;5034661;28;20049;-78
2023/06/16 08:28:30;;;;;;;1999.90;999.90;;;23.60;71.70;;;;;;5034521;28;20045;-77
2023/06/16 08:30:55;;;;;;;1999.90;999.90;;;23.70;72.00;;;;;;5035161;28;20034;-78
2023/06/16 08:33:21;;;;;;;1999.90;999.90;;;23.70;70.80;;;;;;5039379;28;20833;-78
2023/06/16 08:35:47;;;;;;;1999.90;999.90;;;23.90;69.80;;;;;;5035636;28;20168;-79
2023/06/16 08:38:12;;;;;;;1999.90;999.90;;;23.90;70.10;;;;;;5036729;28;20030;-79
2023/06/16 08:40:38;;;;;;;1999.90;999.90;;;24.00;68.40;;;;;;5035659;28;20100;-77
2023/06/16 08:43:06;;;;;;;1999.90;999.90;;;24.30;67.20;;;;;;5035517;28;20041;-78
2023/06/16 08:45:33;;;;;;;1999.90;999.90;;;24.30;67.50;;;;;;5037556;28;20112;-78
2023/06/16 08:47:59;;;;;;;1999.90;999.90;;;24.20;66.60;;;;;;5037631;28;20029;-79
2023/06/16 08:50:26;;;;;;;1999.90;999.90;;;24.50;66.90;;;;;;5035696;28;20109;-74
2023/06/16 08:52:53;;;;;;;1999.90;999.90;;;24.80;65.80;;;;;;5033155;28;20040;-73
2023/06/16 08:55:19;;;;;;;1999.90;999.90;;;24.90;63.60;;;;;;5032923;28;20479;-75
2023/06/16 08:57:51;;;;;;;1999.90;999.90;;;24.90;63.30;;;;;;5026439;28;20114;-74
2023/06/16 09:00:18;;;;;;;1999.90;999.90;;;24.90;63.20;;;;;;5034606;28;20496;-75
2023/06/16 09:02:48;;;;;;;1999.90;999.90;;;25.00;65.60;;;;;;5033967;28;20084;-76
2023/06/16 09:05:15;;;;;;;1999.90;999.90;;;25.10;64.30;;;;;;5034688;28;20112;-75
2023/06/16 09:07:41;;;;;;;1999.90;999.90;;;25.10;62.90;;;;;;5032494;28;20105;-77
2023/06/16 09:10:07;;;;;;;1999.90;999.90;;;25.20;66.00;;;;;;5033378;28;20495;-77
2023/06/16 09:12:35;;;;;;;1999.90;999.90;;;25.10;65.60;;;;;;5034076;28;20038;-77
2023/06/16 09:15:01;;;;;;;1999.90;999.90;;;25.00;60.00;;;;;;5038372;28;20096;-79
2023/06/16 09:17:30;;;;;;;1999.90;999.90;;;25.10;60.60;;;;;;5040278;28;20033;-79
2023/06/16 09:19:56;;;;;;;1999.90;999.90;;;25.40;61.20;;;;;;5039259;28;20045;-78
2023/06/16 09:22:26;;;;;;;1999.90;999.90;;;25.60;60.90;;;;;;5040092;28;20045;-78
2023/06/16 09:24:59;;;;;;;1999.90;999.90;;;25.60;60.60;;;;;;5037873;28;20042;-77
2023/06/16 09:27:44;;;;;;;1999.90;999.90;;;25.70;58.20;;;;;;5037317;28;20115;-79
2023/06/16 09:30:14;;;;;;;1999.90;999.90;;;26.00;59.00;;;;;;5038011;28;20035;-82
2023/06/16 09:32:39;;;;;;;1999.90;999.90;;;25.90;59.40;;;;;;5038399;28;20034;-82
2023/06/16 09:35:20;;;;;;;1999.90;999.90;;;25.60;58.70;;;;;;5042530;28;20041;-80
2023/06/16 09:37:50;;;;;;;1999.90;999.90;;;25.90;60.70;;;;;;5048421;28;20092;-81
2023/06/16 09:40:17;;;;;;;1999.90;999.90;;;26.10;59.20;;;;;;5039733;28;20038;-79
2023/06/16 09:42:44;;;;;;;1999.90;999.90;;;26.40;59.60;;;;;;5038217;28;20038;-78
2023/06/16 09:45:12;;;;;;;1999.90;999.90;;;26.30;58.40;;;;;;5038860;28;20022;-77
2023/06/16 09:47:43;;;;;;;1999.90;999.90;;;26.50;58.50;;;;;;5036435;28;20112;-77
2023/06/16 09:50:14;;;;;;;1999.90;999.90;;;26.90;57.20;;;;;;5034493;28;20092;-79
2023/06/16 09:52:44;;;;;;;1999.90;999.90;;;26.90;57.20;;;;;;5034370;28;20093;-79
2023/06/16 09:55:13;;;;;;;1999.90;999.90;;;27.00;58.20;;;;;;5035321;28;20037;-80
2023/06/16 09:57:42;;;;;;;1999.90;999.90;;;26.90;60.00;;;;;;5034097;28;20037;-78
2023/06/16 10:00:18;;;;;;;1999.90;999.90;;;27.30;55.40;;;;;;5035010;28;20042;-80
2023/06/16 10:02:46;;;;;;;1999.90;999.90;;;27.30;57.20;;;;;;5037923;28;20030;-80
2023/06/16 10:05:19;;;;;;;1999.90;999.90;;;27.30;57.70;;;;;;5037069;28;20054;-79
2023/06/16 10:07:50;;;;;;;1999.90;999.90;;;27.00;54.60;;;;;;5039665;28;20049;-79
2023/06/16 10:10:19;;;;;;;1999.90;999.90;;;26.90;55.30;;;;;;5038548;28;20052;-80
2023/06/16 10:12:49;;;;;;;1999.90;999.90;;;26.70;58.10;;;;;;5038514;28;20026;-80
2023/06/16 10:15:27;;;;;;;1999.90;999.90;;;27.20;56.30;;;;;;5038819;28;20467;-79
2023/06/16 10:18:03;;;;;;;1999.90;999.90;;;27.90;51.30;;;;;;5040500;28;20475;-79
2023/06/16 10:20:30;;;;;;;1999.90;999.90;;;27.60;53.00;;;;;;5038061;28;20045;-79
2023/06/16 10:22:57;;;;;;;1999.90;999.90;;;27.40;54.30;;;;;;5037515;28;20030;-80
2023/06/16 10:25:22;;;;;;;1999.90;999.90;;;26.90;54.00;;;;;;5035638;28;20050;-79
2023/06/16 10:27:50;;;;;;;1999.90;999.90;;;26.90;52.80;;;;;;5038162;28;20022;-80
2023/06/16 10:30:18;;;;;;;1999.90;999.90;;;27.40;55.20;;;;;;5038283;28;20033;-79
2023/06/16 10:32:55;;;;;;;1999.90;999.90;;;28.10;53.90;;;;;;5036550;28;20058;-77
2023/06/16 10:35:22;;;;;;;1999.90;999.90;;;28.70;51.70;;;;;;5039858;28;20042;-79
2023/06/16 10:37:50;;;;;;;1999.90;999.90;;;28.60;50.70;;;;;;5038112;28;20108;-76
2023/06/16 10:40:19;;;;;;;1999.90;999.90;;;28.10;50.10;;;;;;5037328;28;20030;-77
2023/06/16 10:42:45;;;;;;;1999.90;999.90;;;27.40;53.20;;;;;;5035777;28;20049;-80
2023/06/16 10:45:36;;;;;;;1999.90;999.90;;;27.50;53.70;;;;;;5037709;28;20487;-81
2023/06/16 10:48:04;;;;;;;1999.90;999.90;;;27.90;53.70;;;;;;5037747;28;20030;-81
2023/06/16 10:50:42;;;;;;;1999.90;999.90;;;28.30;52.40;;;;;;5039178;28;20543;-80
2023/06/16 10:53:23;;;;;;;1999.90;999.90;;;28.70;50.40;;;;;;5037738;28;20060;-79
2023/06/16 10:56:04;;;;;;;1999.90;999.90;;;28.40;51.10;;;;;;5038374;28;20862;-78
2023/06/16 10:58:30;;;;;;;1999.90;999.90;;;28.30;51.60;;;;;;5041872;28;20037;-78
2023/06/16 11:01:02;;;;;;;1999.90;999.90;;;27.00;54.90;;;;;;5039449;28;20033;-80
2023/06/16 11:03:45;;;;;;;1999.90;999.90;;;26.90;54.70;;;;;;5039984;28;20076;-75
2023/06/16 11:06:11;;;;;;;1999.90;999.90;;;26.30;54.90;;;;;;5036322;28;20042;-78
2023/06/16 11:08:58;;;;;;;1999.90;999.90;;;26.20;55.60;;;;;;5023798;28;20033;-77
2023/06/16 11:11:34;;;;;;;1999.90;999.90;;;25.70;56.80;;;;;;5026606;28;20038;-79
2023/06/16 11:14:01;;;;;;;1999.90;999.90;;;25.40;56.90;;;;;;5025304;28;20030;-78
2023/06/16 11:16:27;;;;;;;1999.90;999.90;;;26.00;56.60;;;;;;5030227;28;20042;-75
2023/06/16 11:18:54;;;;;;;1999.90;999.90;;;26.80;56.30;;;;;;5022044;28;20038;-77
2023/06/16 11:21:23;;;;;;;1999.90;999.90;;;27.20;56.70;;;;;;5024534;28;20034;-77
2023/06/16 11:23:49;;;;;;;1999.90;999.90;;;28.20;54.30;;;;;;5024935;28;20030;-77
2023/06/16 11:26:17;;;;;;;1999.90;999.90;;;29.00;53.90;;;;;;5026532;28;20569;-78
2023/06/16 11:28:43;;;;;;;1999.90;999.90;;;29.40;52.50;;;;;;5022604;28;20031;-77
2023/06/16 11:31:10;;;;;;;1999.90;999.90;;;28.80;53.00;;;;;;5034277;28;20492;-77
2023/06/16 11:33:36;;;;;;;1999.90;999.90;;;28.30;51.30;;;;;;5036326;28;20033;-77
2023/06/16 11:36:22;;;;;;;1999.90;999.90;;;28.10;52.80;;;;;;5036571;28;20041;-77
2023/06/16 11:38:55;;;;;;;1999.90;999.90;;;27.70;53.00;;;;;;5037372;28;20029;-76
2023/06/16 11:41:30;;;;;;;1999.90;999.90;;;27.40;53.60;;;;;;5035796;28;20166;-77
2023/06/16 11:43:56;;;;;;;1999.90;999.90;;;27.30;57.20;;;;;;5034702;28;20026;-77
2023/06/16 11:46:25;;;;;;;1999.90;999.90;;;27.80;54.60;;;;;;5034168;28;20049;-76
2023/06/16 11:48:52;;;;;;;1999.90;999.90;;;28.40;52.90;;;;;;5036182;28;20025;-77
2023/06/16 11:51:19;;;;;;;1999.90;999.90;;;29.00;53.70;;;;;;5035887;28;20036;-77
2023/06/16 11:53:45;;;;;;;1999.90;999.90;;;28.90;52.30;;;;;;5036011;28;20030;-77
2023/06/16 11:56:16;;;;;;;1999.90;999.90;;;28.60;51.90;;;;;;5034088;28;20452;-77
2023/06/16 11:58:44;;;;;;;1999.90;999.90;;;28.00;52.80;;;;;;5034588;28;20034;-77
2023/06/16 12:01:14;;;;;;;1999.90;999.90;;;27.50;53.20;;;;;;5034350;28;20570;-77